createdAt,value
2023-01-12T00:01:53.777Z,12.57
2023-01-12T00:04:21.071Z,8.77
2023-01-12T00:06:48.869Z,11.95
2023-01-12T00:09:16.306Z,10.93
2023-01-12T00:11:44.151Z,10.63
2023-01-12T00:14:11.413Z,11.60
2023-01-12T00:16:39.219Z,11.68
2023-01-12T00:19:19.635Z,15.23
2023-01-12T00:21:57.222Z,8.77
2023-01-12T00:24:29.898Z,15.40
2023-01-12T00:26:59.009Z,8.80
2023-01-12T00:29:28.222Z,11.95
2023-01-12T00:31:56.715Z,9.90
2023-01-12T00:34:24.407Z,13.30
2023-01-12T00:36:51.797Z,8.50
2023-01-12T00:39:19.785Z,10.77
2023-01-12T00:42:05.673Z,10.82
2023-01-12T00:44:51.447Z,13.52
2023-01-12T00:47:19.435Z,11.63
2023-01-12T00:49:46.953Z,11.32
2023-01-12T00:52:29.536Z,17.52
2023-01-12T00:54:57.716Z,9.15
2023-01-12T00:57:24.965Z,12.82
2023-01-12T00:59:55.469Z,12.98
2023-01-12T01:02:23.910Z,6.95
2023-01-12T01:04:51.629Z,11.00
2023-01-12T01:07:21.679Z,12.70
2023-01-12T01:09:49.525Z,12.43
2023-01-12T01:12:17.236Z,11.35
2023-01-12T01:14:44.441Z,9.30
2023-01-12T01:17:11.734Z,9.25
2023-01-12T01:19:38.989Z,10.75
2023-01-12T01:22:06.271Z,9.02
2023-01-12T01:24:33.487Z,11.75
2023-01-12T01:27:00.867Z,14.13
2023-01-12T01:29:28.149Z,9.25
2023-01-12T01:31:55.848Z,12.43
2023-01-12T01:34:26.425Z,14.15
2023-01-12T01:36:53.694Z,10.68
2023-01-12T01:39:21.063Z,12.75
2023-01-12T01:41:48.762Z,9.82
2023-01-12T01:44:31.094Z,12.18
2023-01-12T01:47:17.615Z,7.18
2023-01-12T01:49:49.497Z,6.72
2023-01-12T01:52:34.011Z,11.70
2023-01-12T01:55:34.216Z,10.65
2023-01-12T01:58:06.259Z,8.05
2023-01-12T02:00:33.627Z,9.52
2023-01-12T02:03:05.045Z,4.50
2023-01-12T02:05:33.111Z,10.05
2023-01-12T02:08:07.465Z,8.98
2023-01-12T02:10:34.929Z,10.73
2023-01-12T02:13:20.679Z,8.80
2023-01-12T02:16:23.591Z,11.63
2023-01-12T02:19:12.779Z,11.85
2023-01-12T02:22:17.648Z,10.70
2023-01-12T02:25:06.222Z,9.13
2023-01-12T02:28:14.617Z,6.50
2023-01-12T02:31:06.320Z,8.57
2023-01-12T02:33:45.636Z,5.72
2023-01-12T02:36:21.806Z,6.78
2023-01-12T02:39:05.677Z,8.35
2023-01-12T02:42:36.686Z,6.80
2023-01-12T02:45:38.304Z,7.97
2023-01-12T02:48:26.521Z,9.52
2023-01-12T02:51:05.474Z,7.78
2023-01-12T02:53:50.629Z,6.88
2023-01-12T02:56:23.721Z,6.35
2023-01-12T02:58:56.123Z,6.40
2023-01-12T03:01:25.796Z,9.98
2023-01-12T03:03:56.865Z,9.30
2023-01-12T03:06:24.163Z,3.20
2023-01-12T03:08:52.702Z,7.07
2023-01-12T03:11:22.419Z,5.22
2023-01-12T03:13:58.373Z,4.80
2023-01-12T03:16:29.703Z,9.68
2023-01-12T03:19:09.861Z,7.57
2023-01-12T03:21:41.015Z,7.72
2023-01-12T03:24:15.637Z,13.93
2023-01-12T03:26:48.285Z,8.68
2023-01-12T03:29:36.155Z,7.38
2023-01-12T03:32:04.156Z,11.27
2023-01-12T03:34:33.424Z,6.60
2023-01-12T03:37:11.438Z,13.98
2023-01-12T03:40:00.217Z,7.07
2023-01-12T03:42:37.669Z,7.97
2023-01-12T03:45:26.723Z,13.48
2023-01-12T03:48:24.947Z,7.13
2023-01-12T03:51:00.398Z,7.13
2023-01-12T03:53:30.116Z,11.07
2023-01-12T03:56:02.744Z,7.93
2023-01-12T03:58:30.903Z,6.53
2023-01-12T04:00:58.266Z,10.70
2023-01-12T04:03:26.535Z,6.88
2023-01-12T04:05:53.914Z,8.38
2023-01-12T04:08:21.736Z,6.32
2023-01-12T04:10:49.131Z,8.98
2023-01-12T04:13:16.500Z,7.78
2023-01-12T04:15:43.819Z,8.18
2023-01-12T04:18:12.567Z,6.38
2023-01-12T04:20:40.290Z,8.60
2023-01-12T04:23:08.040Z,5.85
2023-01-12T04:25:35.606Z,7.38
2023-01-12T04:28:03.781Z,6.07
2023-01-12T04:30:32.924Z,7.63
2023-01-12T04:33:02.062Z,8.07
2023-01-12T04:35:29.310Z,7.65
2023-01-12T04:37:56.739Z,10.10
2023-01-12T04:40:25.131Z,12.15
2023-01-12T04:43:01.069Z,7.47
2023-01-12T04:45:29.589Z,6.05
2023-01-12T04:48:00.453Z,9.45
2023-01-12T04:50:27.714Z,5.85
2023-01-12T04:52:55.247Z,8.18
2023-01-12T04:55:22.568Z,7.82
2023-01-12T04:57:49.799Z,6.50
2023-01-12T05:00:17.626Z,11.00
2023-01-12T05:02:45.007Z,5.22
2023-01-12T05:05:12.234Z,7.32
2023-01-12T05:07:59.433Z,7.90
2023-01-12T05:10:26.679Z,10.18
2023-01-12T05:12:54.058Z,6.35
2023-01-12T05:15:21.357Z,10.73
2023-01-12T05:17:48.687Z,10.50
2023-01-12T05:20:16.159Z,9.57
2023-01-12T05:22:43.418Z,9.02
2023-01-12T05:25:10.779Z,6.45
2023-01-12T05:27:38.050Z,7.05
2023-01-12T05:30:06.286Z,7.75
2023-01-12T05:32:38.512Z,11.20
2023-01-12T05:35:09.423Z,8.77
2023-01-12T05:37:36.692Z,10.50
2023-01-12T05:40:04.594Z,6.65
2023-01-12T05:42:50.350Z,9.50
2023-01-12T05:45:17.760Z,7.15
2023-01-12T05:47:45.051Z,5.30
2023-01-12T05:50:12.570Z,4.55
2023-01-12T05:52:39.838Z,7.70
2023-01-12T05:55:07.423Z,6.90
2023-01-12T05:57:34.594Z,8.13
2023-01-12T06:00:02.331Z,7.65
2023-01-12T06:02:39.530Z,15.40
2023-01-12T06:05:09.597Z,6.07
2023-01-12T06:07:37.602Z,9.45
2023-01-12T06:10:05.887Z,8.10
2023-01-12T06:12:51.559Z,8.80
2023-01-12T06:15:18.908Z,8.68
2023-01-12T06:17:46.201Z,7.30
2023-01-12T06:20:17.427Z,10.68
2023-01-12T06:22:45.289Z,11.15
2023-01-12T06:25:12.751Z,8.35
2023-01-12T06:27:40.313Z,5.70
2023-01-12T06:30:08.892Z,10.55
2023-01-12T06:32:36.624Z,11.27
2023-01-12T06:35:17.871Z,10.43
2023-01-12T06:37:45.537Z,12.88
2023-01-12T06:40:13.338Z,10.93
2023-01-12T06:42:42.272Z,11.10
2023-01-12T06:45:10.708Z,10.38
2023-01-12T06:47:46.067Z,10.18
2023-01-12T06:50:13.611Z,6.90
2023-01-12T06:52:41.083Z,9.00
2023-01-12T06:55:08.869Z,8.95
2023-01-12T06:57:36.150Z,10.00
2023-01-12T07:00:05.642Z,11.13
2023-01-12T07:02:32.989Z,10.43
2023-01-12T07:05:00.311Z,10.68
2023-01-12T07:07:27.620Z,20.13
2023-01-12T07:09:54.951Z,11.88
2023-01-12T07:12:22.434Z,8.35
2023-01-12T07:14:49.766Z,11.50
2023-01-12T07:17:17.077Z,8.73
2023-01-12T07:19:44.425Z,10.27
2023-01-12T07:22:11.796Z,10.43
2023-01-12T07:24:39.073Z,9.75
2023-01-12T07:27:06.607Z,8.43
2023-01-12T07:29:33.894Z,9.00
2023-01-12T07:32:01.997Z,5.13
2023-01-12T07:34:30.050Z,10.82
2023-01-12T07:36:57.780Z,11.60
2023-01-12T07:39:25.159Z,14.15
2023-01-12T07:42:10.749Z,8.85
2023-01-12T07:44:38.059Z,5.88
2023-01-12T07:47:05.321Z,11.10
2023-01-12T07:49:32.612Z,9.82
2023-01-12T07:52:00.036Z,15.15
2023-01-12T07:54:27.295Z,14.10
2023-01-12T07:56:54.736Z,14.27
2023-01-12T07:59:21.984Z,9.80
2023-01-12T08:01:49.288Z,9.82
2023-01-12T08:04:16.587Z,7.95
2023-01-12T08:06:43.861Z,9.85
2023-01-12T08:09:11.162Z,7.97
2023-01-12T08:11:38.816Z,11.80
2023-01-12T08:14:06.352Z,10.40
2023-01-12T08:16:38.264Z,8.27
2023-01-12T08:21:50.121Z,12.57
2023-01-12T08:24:22.946Z,13.13
2023-01-12T08:26:54.157Z,14.23
2023-01-12T08:29:32.019Z,14.18
2023-01-12T08:34:35.397Z,10.45
2023-01-12T08:37:06.809Z,8.18
2023-01-12T08:39:35.509Z,15.05
2023-01-12T08:42:03.371Z,8.10
2023-01-12T08:44:36.554Z,11.52
2023-01-12T08:47:06.199Z,10.05
2023-01-12T08:49:34.140Z,9.23
2023-01-12T08:52:01.618Z,10.82
2023-01-12T08:54:29.020Z,12.40
2023-01-12T08:56:56.452Z,10.98
2023-01-12T08:59:24.154Z,9.18
2023-01-12T09:01:51.498Z,8.57
2023-01-12T09:04:18.795Z,12.23
2023-01-12T09:06:47.263Z,10.88
2023-01-12T09:09:20.128Z,5.38
2023-01-12T09:11:48.968Z,8.32
2023-01-12T09:14:16.752Z,9.80
2023-01-12T09:16:44.267Z,7.65
2023-01-12T09:19:11.691Z,9.73
2023-01-12T09:21:40.933Z,9.10
2023-01-12T09:24:09.031Z,8.85
2023-01-12T09:26:41.998Z,9.07
2023-01-12T09:29:11.400Z,9.25
2023-01-12T09:31:41.593Z,12.18
2023-01-12T09:34:09.561Z,6.40
2023-01-12T09:36:38.838Z,11.43
2023-01-12T09:39:10.367Z,7.50
2023-01-12T09:42:04.423Z,9.15
2023-01-12T09:45:22.438Z,7.15
2023-01-12T09:48:01.503Z,6.03
2023-01-12T09:50:34.398Z,7.30
2023-01-12T09:53:10.595Z,8.90
2023-01-12T09:55:50.486Z,8.70
2023-01-12T09:58:39.002Z,8.75
2023-01-12T10:01:17.559Z,11.07
2023-01-12T10:03:55.780Z,9.38
2023-01-12T10:06:22.991Z,10.10
2023-01-12T10:09:02.068Z,10.85
2023-01-12T10:11:50.519Z,8.60
2023-01-12T10:14:33.779Z,10.32
2023-01-12T10:17:25.793Z,10.00
2023-01-12T10:20:08.045Z,7.70
2023-01-12T10:22:46.405Z,7.80
2023-01-12T10:25:22.622Z,8.75
2023-01-12T10:27:52.564Z,6.75
2023-01-12T10:30:24.850Z,16.02
2023-01-12T10:32:52.571Z,8.32
2023-01-12T10:35:22.913Z,10.57
2023-01-12T10:37:56.228Z,7.65
2023-01-12T10:40:32.848Z,5.32
2023-01-12T10:43:24.045Z,6.65
2023-01-12T10:46:13.641Z,11.30
2023-01-12T10:48:53.880Z,8.52
2023-01-12T10:51:31.192Z,8.23
2023-01-12T10:54:32.628Z,7.07
2023-01-12T10:57:16.919Z,5.25
2023-01-12T10:59:52.176Z,6.75
2023-01-12T11:02:19.759Z,7.55
2023-01-12T11:04:52.664Z,8.57
2023-01-12T11:07:30.667Z,6.50
2023-01-12T11:10:26.972Z,8.23
2023-01-12T11:13:01.012Z,6.65
2023-01-12T11:15:29.834Z,9.50
2023-01-12T11:18:10.220Z,7.63
2023-01-12T11:20:47.653Z,7.28
2023-01-12T11:23:24.565Z,10.32
2023-01-12T11:25:53.423Z,6.20
2023-01-12T11:28:35.572Z,9.50
2023-01-12T11:33:54.993Z,9.35
2023-01-12T11:36:29.222Z,5.70
2023-01-12T11:39:03.275Z,8.13
2023-01-12T11:42:09.168Z,5.22
2023-01-12T11:45:02.466Z,5.85
2023-01-12T11:47:41.756Z,9.18
2023-01-12T11:50:12.243Z,9.43
2023-01-12T11:52:40.385Z,7.20
2023-01-12T11:55:14.275Z,7.38
2023-01-12T11:57:57.157Z,5.03
2023-01-12T12:00:59.961Z,9.00
2023-01-12T12:03:55.452Z,10.10
2023-01-12T12:06:31.524Z,7.68
2023-01-12T12:09:32.758Z,6.75
2023-01-12T12:12:07.451Z,8.05
2023-01-12T12:15:04.880Z,6.20
2023-01-12T12:17:55.377Z,8.07
2023-01-12T12:20:34.785Z,7.03
2023-01-12T12:23:04.827Z,5.05
2023-01-12T12:26:13.654Z,5.57
2023-01-12T12:29:14.634Z,6.35
2023-01-12T12:31:59.774Z,7.72
2023-01-12T12:34:45.629Z,6.95
2023-01-12T12:37:26.760Z,6.90
2023-01-12T12:40:15.646Z,8.07
2023-01-12T12:43:21.799Z,6.45
2023-01-12T12:46:00.557Z,8.25
2023-01-12T12:48:59.900Z,4.40
2023-01-12T12:51:36.140Z,5.18
2023-01-12T12:54:12.032Z,7.45
2023-01-12T12:56:39.619Z,5.32
2023-01-12T12:59:07.523Z,5.38
2023-01-12T13:01:35.965Z,4.60
2023-01-12T13:04:05.203Z,5.90
2023-01-12T13:06:38.575Z,4.88
2023-01-12T13:09:12.031Z,8.82
2023-01-12T13:11:54.286Z,4.50
2023-01-12T13:14:30.575Z,5.32
2023-01-12T13:17:20.203Z,7.60
2023-01-12T13:19:53.300Z,5.70
2023-01-12T13:22:43.093Z,6.55
2023-01-12T13:25:10.313Z,5.15
2023-01-12T13:28:01.711Z,4.00
2023-01-12T13:30:28.993Z,2.83
2023-01-12T13:33:17.315Z,6.63
2023-01-12T13:35:45.129Z,7.57
2023-01-12T13:38:33.849Z,4.07
2023-01-12T13:41:41.096Z,7.60
2023-01-12T13:44:15.105Z,6.28
2023-01-12T13:46:48.685Z,8.18
2023-01-12T13:49:34.261Z,4.57
2023-01-12T13:52:06.958Z,6.13
2023-01-12T13:54:34.822Z,3.65
2023-01-12T13:57:17.958Z,5.47
2023-01-12T14:00:11.512Z,5.30
2023-01-12T14:02:42.092Z,3.33
2023-01-12T14:05:43.515Z,5.38
2023-01-12T14:08:34.393Z,6.78
2023-01-12T14:11:36.145Z,4.65
2023-01-12T14:14:31.079Z,5.13
2023-01-12T14:17:16.784Z,4.20
2023-01-12T14:19:51.425Z,6.68
2023-01-12T14:22:20.167Z,2.78
2023-01-12T14:24:47.568Z,3.22
2023-01-12T14:27:23.351Z,3.22
2023-01-12T14:29:51.170Z,4.70
2023-01-12T14:32:21.310Z,4.57
2023-01-12T14:34:53.168Z,5.07
2023-01-12T14:39:56.762Z,5.03
2023-01-12T14:42:42.907Z,2.72
2023-01-12T14:45:44.409Z,2.13
2023-01-12T14:48:22.372Z,4.07
2023-01-12T14:51:18.762Z,4.57
2023-01-12T14:53:48.379Z,5.18
2023-01-12T14:56:50.367Z,3.28
2023-01-12T14:59:23.610Z,3.65
2023-01-12T15:01:54.209Z,5.30
2023-01-12T15:04:25.260Z,4.63
2023-01-12T15:07:07.684Z,3.97
2023-01-12T15:09:50.795Z,3.60
2023-01-12T15:12:30.241Z,2.75
2023-01-12T15:15:24.811Z,4.13
2023-01-12T15:18:12.990Z,1.95
2023-01-12T15:21:03.402Z,4.43
2023-01-12T15:23:54.784Z,2.92
2023-01-12T15:26:22.540Z,2.60
2023-01-12T15:28:50.153Z,3.63
2023-01-12T15:31:28.745Z,2.47
2023-01-12T15:33:56.888Z,1.80
2023-01-12T15:36:25.036Z,4.18
2023-01-12T15:38:52.795Z,2.53
2023-01-12T15:41:45.417Z,3.05
2023-01-12T15:44:17.272Z,4.55
2023-01-12T15:46:47.973Z,3.60
2023-01-12T15:49:15.652Z,4.72
2023-01-12T15:51:47.014Z,4.95
2023-01-12T15:54:15.074Z,6.65
2023-01-12T15:56:42.329Z,7.05
2023-01-12T15:59:09.781Z,6.00
2023-01-12T16:01:55.263Z,4.90
2023-01-12T16:04:43.090Z,3.22
2023-01-12T16:07:10.882Z,3.28
2023-01-12T16:09:38.168Z,1.73
2023-01-12T16:12:05.888Z,2.15
2023-01-12T16:14:33.187Z,5.60
2023-01-12T16:17:00.422Z,5.30
2023-01-12T16:19:28.437Z,1.60
2023-01-12T16:21:55.902Z,4.07
2023-01-12T16:24:26.758Z,3.08
2023-01-12T16:26:54.195Z,2.10
2023-01-12T16:29:23.828Z,4.25
2023-01-12T16:31:51.549Z,4.00
2023-01-12T16:34:22.881Z,3.63
2023-01-12T16:36:50.249Z,3.28
2023-01-12T16:39:17.618Z,2.35
2023-01-12T16:41:44.901Z,3.90
2023-01-12T16:44:12.178Z,3.88
2023-01-12T16:46:39.421Z,3.45
2023-01-12T16:49:06.770Z,2.58
2023-01-12T16:51:34.756Z,3.88
2023-01-12T16:54:04.829Z,3.63
2023-01-12T16:56:32.354Z,3.15
2023-01-12T16:58:59.605Z,5.13
2023-01-12T17:01:27.209Z,3.30
2023-01-12T17:03:58.039Z,2.45
2023-01-12T17:06:27.672Z,2.95
2023-01-12T17:08:55.455Z,5.15
2023-01-12T17:11:27.799Z,4.05
2023-01-12T17:13:56.808Z,2.47
2023-01-12T17:16:26.528Z,3.08
2023-01-12T17:18:54.493Z,4.80
2023-01-12T17:21:22.136Z,4.07
2023-01-12T17:23:49.793Z,3.60
2023-01-12T17:26:18.629Z,4.20
2023-01-12T17:28:47.005Z,2.75
2023-01-12T17:31:20.703Z,3.13
2023-01-12T17:33:50.110Z,2.53
2023-01-12T17:36:18.163Z,1.80
2023-01-12T17:38:45.951Z,3.50
2023-01-12T17:41:35.655Z,2.15
2023-01-12T17:44:05.478Z,3.33
2023-01-12T17:46:33.621Z,5.18
2023-01-12T17:49:02.359Z,4.32
2023-01-12T17:51:29.779Z,2.65
2023-01-12T17:54:02.108Z,3.13
2023-01-12T17:56:31.708Z,2.47
2023-01-12T17:59:00.034Z,2.92
2023-01-12T18:01:29.925Z,2.55
2023-01-12T18:03:58.751Z,3.47
2023-01-12T18:06:27.154Z,2.97
2023-01-12T18:08:56.627Z,2.58
2023-01-12T18:11:24.469Z,3.60
2023-01-12T18:13:52.190Z,2.90
2023-01-12T18:16:19.619Z,4.80
2023-01-12T18:18:47.022Z,4.50
2023-01-12T18:21:18.525Z,3.15
2023-01-12T18:23:45.905Z,3.20
2023-01-12T18:26:16.760Z,6.20
2023-01-12T18:28:44.157Z,4.18
2023-01-12T18:31:15.201Z,3.75
2023-01-12T18:33:43.886Z,4.00
2023-01-12T18:36:15.009Z,4.15
2023-01-12T18:38:42.378Z,2.57
2023-01-12T18:41:28.991Z,5.22
2023-01-12T18:43:58.925Z,6.18
2023-01-12T18:46:44.619Z,5.30
2023-01-12T18:49:11.883Z,4.32
2023-01-12T18:51:57.548Z,4.10
2023-01-12T18:54:24.952Z,4.15
2023-01-12T18:56:52.292Z,3.60
2023-01-12T18:59:19.683Z,2.72
2023-01-12T19:01:47.061Z,2.72
2023-01-12T19:04:15.765Z,3.75
2023-01-12T19:06:47.525Z,2.97
2023-01-12T19:09:33.510Z,3.03
2023-01-12T19:12:01.696Z,3.03
2023-01-12T19:14:47.571Z,2.88
2023-01-12T19:17:27.343Z,4.60
2023-01-12T19:19:55.247Z,5.85
2023-01-12T19:22:41.051Z,4.85
2023-01-12T19:25:37.098Z,3.53
2023-01-12T19:28:25.891Z,2.40
2023-01-12T19:30:53.349Z,2.95
2023-01-12T19:33:21.438Z,5.72
2023-01-12T19:35:48.832Z,5.57
2023-01-12T19:38:16.204Z,4.40
2023-01-12T19:40:45.448Z,3.05
2023-01-12T19:43:18.905Z,5.28
2023-01-12T19:45:48.727Z,3.45
2023-01-12T19:48:17.704Z,5.80
2023-01-12T19:50:45.696Z,4.28
2023-01-12T19:53:15.543Z,4.38
2023-01-12T19:55:43.603Z,4.07
2023-01-12T19:58:11.440Z,4.70
2023-01-12T20:00:44.935Z,4.57
2023-01-12T20:03:17.794Z,2.75
2023-01-12T20:05:51.003Z,3.08
2023-01-12T20:08:24.558Z,3.28
2023-01-12T20:10:59.479Z,2.60
2023-01-12T20:13:27.231Z,4.18
2023-01-12T20:15:56.828Z,4.15
2023-01-12T20:18:24.639Z,3.53
2023-01-12T20:20:53.586Z,3.85
2023-01-12T20:23:20.845Z,2.78
2023-01-12T20:25:48.147Z,4.20
2023-01-12T20:28:15.516Z,4.13
2023-01-12T20:30:43.627Z,2.63
2023-01-12T20:33:11.800Z,2.78
2023-01-12T20:35:43.923Z,8.25
2023-01-12T20:38:15.767Z,4.18
2023-01-12T20:43:11.561Z,3.78
2023-01-12T20:45:41.811Z,4.13
2023-01-12T20:48:12.495Z,2.15
2023-01-12T20:50:44.986Z,3.55
2023-01-12T20:53:13.239Z,6.18
2023-01-12T20:55:49.884Z,2.33
2023-01-12T20:58:17.950Z,5.40
2023-01-12T21:00:45.986Z,2.47
2023-01-12T21:03:13.661Z,2.75
2023-01-12T21:05:43.027Z,3.40
2023-01-12T21:08:10.707Z,3.00
2023-01-12T21:10:39.378Z,2.55
2023-01-12T21:13:07.578Z,6.15
2023-01-12T21:15:34.880Z,3.22
2023-01-12T21:18:02.127Z,4.07
2023-01-12T21:20:29.460Z,4.20
2023-01-12T21:22:57.014Z,3.33
2023-01-12T21:25:28.013Z,2.67
2023-01-12T21:27:55.881Z,5.17
2023-01-12T21:30:23.501Z,2.35
2023-01-12T21:32:50.759Z,2.88
2023-01-12T21:35:18.100Z,4.10
2023-01-12T21:37:45.488Z,3.30
2023-01-12T21:40:14.456Z,2.42
2023-01-12T21:43:00.261Z,2.65
2023-01-12T21:45:27.539Z,3.53
2023-01-12T21:47:55.522Z,3.67
2023-01-12T21:50:23.324Z,3.35
2023-01-12T21:52:50.780Z,5.00
2023-01-12T21:55:19.630Z,2.95
2023-01-12T21:57:47.968Z,2.20
2023-01-12T22:00:15.868Z,3.00
2023-01-12T22:02:43.881Z,3.80
2023-01-12T22:05:13.734Z,2.50
2023-01-12T22:07:41.479Z,2.83
2023-01-12T22:10:19.851Z,6.32
2023-01-12T22:12:49.353Z,3.47
2023-01-12T22:15:17.278Z,2.33
2023-01-12T22:17:44.846Z,4.15
2023-01-12T22:20:12.909Z,7.88
2023-01-12T22:22:41.314Z,3.28
2023-01-12T22:25:10.782Z,6.07
2023-01-12T22:27:38.633Z,4.80
2023-01-12T22:30:06.983Z,3.42
2023-01-12T22:32:34.512Z,4.82
2023-01-12T22:35:02.150Z,2.55
2023-01-12T22:37:30.119Z,4.03
2023-01-12T22:39:57.751Z,3.63
2023-01-12T22:42:45.047Z,4.28
2023-01-12T22:45:13.382Z,3.97
2023-01-12T22:47:48.130Z,3.90
2023-01-12T22:50:16.133Z,2.22
2023-01-12T22:52:43.553Z,3.67
2023-01-12T22:55:10.902Z,4.75
2023-01-12T22:57:38.151Z,4.65
2023-01-12T23:00:05.992Z,2.67
2023-01-12T23:02:52.042Z,3.13
2023-01-12T23:05:19.491Z,3.10
2023-01-12T23:07:46.889Z,3.58
2023-01-12T23:10:14.330Z,6.93
2023-01-12T23:12:41.758Z,3.13
2023-01-12T23:15:09.491Z,4.22
2023-01-12T23:17:37.086Z,2.88
2023-01-12T23:20:14.560Z,2.45
2023-01-12T23:22:42.321Z,4.70
2023-01-12T23:25:09.821Z,3.35
2023-01-12T23:27:37.228Z,3.53
2023-01-12T23:30:05.075Z,5.25
2023-01-12T23:32:32.476Z,2.75
2023-01-12T23:34:59.926Z,3.22
2023-01-12T23:37:27.282Z,5.97
2023-01-12T23:39:54.709Z,4.28
2023-01-12T23:42:22.070Z,5.07
2023-01-12T23:44:49.629Z,3.15
2023-01-12T23:47:19.382Z,2.80
2023-01-12T23:49:46.802Z,4.03
2023-01-12T23:52:14.234Z,3.33
2023-01-12T23:54:41.643Z,3.38
2023-01-12T23:57:09.388Z,4.10
2023-01-12T23:59:36.780Z,2.97
